createdAt,value
2018-08-03T00:00:18.257Z,66.91
2018-08-03T00:02:47.658Z,66.42
2018-08-03T00:05:17.029Z,67.75
2018-08-03T00:07:47.168Z,68.76
2018-08-03T00:10:16.530Z,68.95
2018-08-03T00:12:45.976Z,69.11
2018-08-03T00:15:16.529Z,69.42
2018-08-03T00:17:45.921Z,69.16
2018-08-03T00:20:15.270Z,69.60
2018-08-03T00:22:44.749Z,70.24
2018-08-03T00:25:14.108Z,69.18
2018-08-03T00:27:43.557Z,69.61
2018-08-03T00:30:12.918Z,68.93
2018-08-03T00:32:42.337Z,69.31
2018-08-03T00:35:11.737Z,70.09
2018-08-03T00:37:41.134Z,70.22
2018-08-03T00:40:10.215Z,70.78
2018-08-03T00:42:39.613Z,70.73
2018-08-03T00:45:09.113Z,71.04
2018-08-03T00:47:38.569Z,72.17
2018-08-03T00:50:08.061Z,71.15
2018-08-03T00:52:37.418Z,71.30
2018-08-03T00:55:07.147Z,71.53
2018-08-03T00:57:36.602Z,71.65
2018-08-03T01:00:06.506Z,71.57
2018-08-03T01:02:35.885Z,71.92
2018-08-03T01:05:05.449Z,71.88
2018-08-03T01:07:34.781Z,72.66
2018-08-03T01:10:04.197Z,72.64
2018-08-03T01:12:33.533Z,71.79
2018-08-03T01:15:02.983Z,72.46
2018-08-03T01:17:32.301Z,71.20
2018-08-03T01:20:01.671Z,72.34
2018-08-03T01:22:31.007Z,71.83
2018-08-03T01:25:00.548Z,71.58
2018-08-03T01:27:29.929Z,71.73
2018-08-03T01:29:59.412Z,71.75
2018-08-03T01:32:28.718Z,71.51
2018-08-03T01:34:58.369Z,72.01
2018-08-03T01:37:27.766Z,71.87
2018-08-03T01:39:57.183Z,72.04
2018-08-03T01:42:26.610Z,71.45
2018-08-03T01:44:55.997Z,71.16
2018-08-03T01:47:25.350Z,71.73
2018-08-03T01:49:54.802Z,71.62
2018-08-03T01:52:24.154Z,72.89
2018-08-03T01:54:53.581Z,70.86
2018-08-03T01:57:22.998Z,71.28
2018-08-03T01:59:52.437Z,70.88
2018-08-03T02:02:22.051Z,70.96
2018-08-03T02:04:51.522Z,71.75
2018-08-03T02:07:20.937Z,71.83
2018-08-03T02:09:50.317Z,72.33
2018-08-03T02:12:19.773Z,72.17
2018-08-03T02:14:49.221Z,73.12
2018-08-03T02:17:18.690Z,73.02
2018-08-03T02:19:48.157Z,73.56
2018-08-03T02:22:18.162Z,74.19
2018-08-03T02:24:47.575Z,73.79
2018-08-03T02:27:17.608Z,74.02
2018-08-03T02:29:46.959Z,73.71
2018-08-03T02:32:16.403Z,74.10
2018-08-03T02:34:45.697Z,73.41
2018-08-03T02:37:15.070Z,73.57
2018-08-03T02:39:44.482Z,73.49
2018-08-03T02:42:13.620Z,74.00
2018-08-03T02:44:43.059Z,73.08
2018-08-03T02:47:12.548Z,73.25
2018-08-03T02:49:42.557Z,73.23
2018-08-03T02:52:12.065Z,73.29
2018-08-03T02:54:41.945Z,73.41
2018-08-03T02:57:11.385Z,74.25
2018-08-03T02:59:40.877Z,74.17
2018-08-03T03:02:10.237Z,73.97
2018-08-03T03:04:39.650Z,74.48
2018-08-03T03:07:09.078Z,74.46
2018-08-03T03:09:39.400Z,73.73
2018-08-03T03:12:10.177Z,73.69
2018-08-03T03:14:39.540Z,73.26
2018-08-03T03:17:09.054Z,73.45
2018-08-03T03:19:38.488Z,72.55
2018-08-03T03:22:07.857Z,73.87
2018-08-03T03:24:37.399Z,73.72
2018-08-03T03:27:06.873Z,74.22
2018-08-03T03:29:36.273Z,75.35
2018-08-03T03:32:06.645Z,75.19
2018-08-03T03:34:35.994Z,75.28
2018-08-03T03:37:05.468Z,76.05
2018-08-03T03:39:34.838Z,75.80
2018-08-03T03:42:04.197Z,75.85
2018-08-03T03:44:33.627Z,75.71
2018-08-03T03:47:03.762Z,75.35
2018-08-03T03:49:33.113Z,75.05
2018-08-03T03:52:02.510Z,75.48
2018-08-03T03:54:32.078Z,75.45
2018-08-03T03:57:01.542Z,74.68
2018-08-03T03:59:30.938Z,74.16
2018-08-03T04:02:00.447Z,74.73
2018-08-03T04:04:29.845Z,74.65
2018-08-03T04:06:59.380Z,74.23
2018-08-03T04:09:28.766Z,73.44
2018-08-03T04:11:58.194Z,74.04
2018-08-03T04:14:27.520Z,74.03
2018-08-03T04:16:56.709Z,74.02
2018-08-03T04:19:26.005Z,73.45
2018-08-03T04:21:55.454Z,73.42
2018-08-03T04:24:24.858Z,73.02
2018-08-03T04:26:54.322Z,73.79
2018-08-03T04:29:23.789Z,74.74
2018-08-03T04:31:53.162Z,74.52
2018-08-03T04:34:22.505Z,74.96
2018-08-03T04:36:51.886Z,75.64
2018-08-03T04:39:21.279Z,75.05
2018-08-03T04:41:50.737Z,74.39
2018-08-03T04:44:20.257Z,75.13
2018-08-03T04:46:49.686Z,74.96
2018-08-03T04:49:19.124Z,75.09
2018-08-03T04:51:48.645Z,75.40
2018-08-03T04:54:17.997Z,75.09
2018-08-03T04:56:47.485Z,74.80
2018-08-03T04:59:16.941Z,74.19
2018-08-03T05:01:46.566Z,73.47
2018-08-03T05:04:15.958Z,73.77
2018-08-03T05:06:45.357Z,73.91
2018-08-03T05:09:14.845Z,73.64
2018-08-03T05:11:44.173Z,73.37
2018-08-03T05:14:13.619Z,73.44
2018-08-03T05:16:42.930Z,73.56
2018-08-03T05:19:12.336Z,72.66
2018-08-03T05:21:41.621Z,71.73
2018-08-03T05:24:11.052Z,71.85
2018-08-03T05:26:40.377Z,72.33
2018-08-03T05:29:09.778Z,71.51
2018-08-03T05:31:40.234Z,70.80
2018-08-03T05:34:09.635Z,70.47
2018-08-03T05:36:39.057Z,70.51
2018-08-03T05:39:11.138Z,70.22
2018-08-03T05:41:40.830Z,70.24
2018-08-03T05:44:10.341Z,68.01
2018-08-03T05:46:39.866Z,68.18
2018-08-03T05:49:09.183Z,68.92
2018-08-03T05:51:38.603Z,68.22
2018-08-03T05:54:08.270Z,68.13
2018-08-03T05:56:37.677Z,68.53
2018-08-03T05:59:07.298Z,67.69
2018-08-03T06:01:36.477Z,67.07
2018-08-03T06:04:05.896Z,65.34
2018-08-03T06:06:35.327Z,64.20
2018-08-03T06:09:07.429Z,63.05
2018-08-03T06:11:37.120Z,63.01
2018-08-03T06:14:07.194Z,62.85
2018-08-03T06:16:36.734Z,61.73
2018-08-03T06:19:06.427Z,63.57
2018-08-03T06:21:35.913Z,62.55
2018-08-03T06:24:05.426Z,61.46
2018-08-03T06:26:34.785Z,61.11
2018-08-03T06:29:04.434Z,60.23
2018-08-03T06:31:33.811Z,59.94
2018-08-03T06:34:03.235Z,58.48
2018-08-03T06:36:32.650Z,57.94
2018-08-03T06:39:02.013Z,57.95
2018-08-03T06:41:31.462Z,59.38
2018-08-03T06:44:00.822Z,57.09
2018-08-03T06:46:30.501Z,56.78
2018-08-03T06:48:59.933Z,56.92
2018-08-03T06:51:29.296Z,56.17
2018-08-03T06:53:58.797Z,55.56
2018-08-03T06:56:30.803Z,55.62
2018-08-03T06:59:00.499Z,55.53
2018-08-03T07:01:34.298Z,54.86
2018-08-03T07:04:04.788Z,54.36
2018-08-03T07:06:36.340Z,53.81
2018-08-03T07:09:12.861Z,53.51
2018-08-03T07:11:43.722Z,53.79
2018-08-03T07:14:14.222Z,54.57
2018-08-03T07:16:44.478Z,53.18
2018-08-03T07:19:15.576Z,53.45
2018-08-03T07:21:44.783Z,52.95
2018-08-03T07:24:15.427Z,52.74
2018-08-03T07:26:45.450Z,52.10
2018-08-03T07:29:15.122Z,51.75
2018-08-03T07:31:45.104Z,52.25
2018-08-03T07:34:14.631Z,51.32
2018-08-03T07:36:44.628Z,51.32
2018-08-03T07:39:13.988Z,50.27
2018-08-03T07:41:43.402Z,49.95
2018-08-03T07:44:12.901Z,50.54
2018-08-03T07:46:42.606Z,50.38
2018-08-03T07:49:12.716Z,50.50
2018-08-03T07:51:42.161Z,51.69
2018-08-03T07:54:11.618Z,50.52
2018-08-03T07:56:41.072Z,50.30
2018-08-03T07:59:10.713Z,50.91
2018-08-03T08:01:40.118Z,50.90
2018-08-03T08:04:10.175Z,50.81
2018-08-03T08:06:39.602Z,49.64
2018-08-03T08:09:11.223Z,50.56
2018-08-03T08:11:41.187Z,50.42
2018-08-03T08:14:10.590Z,50.30
2018-08-03T08:16:40.213Z,50.54
2018-08-03T08:19:10.922Z,48.99
2018-08-03T08:21:40.722Z,48.56
2018-08-03T08:24:10.286Z,49.44
2018-08-03T08:26:41.028Z,49.48
2018-08-03T08:29:10.428Z,48.43
2018-08-03T08:31:40.577Z,47.96
2018-08-03T08:34:09.883Z,47.70
2018-08-03T08:36:39.228Z,47.20
2018-08-03T08:39:12.243Z,47.98
2018-08-03T08:41:42.689Z,47.54
2018-08-03T08:44:13.161Z,47.39
2018-08-03T08:46:43.038Z,46.91
2018-08-03T08:49:12.461Z,46.42
2018-08-03T08:51:41.817Z,45.94
2018-08-03T08:54:11.217Z,47.43
2018-08-03T08:56:40.606Z,45.98
2018-08-03T08:59:10.269Z,45.47
2018-08-03T09:01:40.291Z,45.99
2018-08-03T09:04:09.780Z,45.29
2018-08-03T09:06:39.163Z,45.88
2018-08-03T09:09:10.665Z,45.41
2018-08-03T09:11:40.353Z,45.28
2018-08-03T09:14:09.762Z,44.61
2018-08-03T09:16:39.269Z,45.49
2018-08-03T09:19:08.645Z,45.09
2018-08-03T09:21:38.105Z,44.63
2018-08-03T09:24:07.470Z,44.89
2018-08-03T09:26:37.169Z,44.65
2018-08-03T09:29:06.693Z,45.00
2018-08-03T09:31:36.206Z,44.50
2018-08-03T09:34:05.598Z,45.12
2018-08-03T09:36:35.166Z,44.42
2018-08-03T09:39:06.525Z,43.80
2018-08-03T09:41:35.954Z,44.67
2018-08-03T09:44:05.771Z,45.05
2018-08-03T09:46:35.318Z,44.54
2018-08-03T09:49:04.712Z,43.98
2018-08-03T09:51:34.182Z,44.42
2018-08-03T09:54:03.689Z,44.35
2018-08-03T09:56:33.181Z,44.14
2018-08-03T09:59:02.599Z,43.80
2018-08-03T10:01:31.948Z,42.94
2018-08-03T10:04:01.539Z,42.86
2018-08-03T10:06:30.953Z,42.87
2018-08-03T10:09:00.412Z,42.15
2018-08-03T10:11:29.837Z,40.95
2018-08-03T10:13:59.200Z,41.96
2018-08-03T10:16:28.769Z,41.83
2018-08-03T10:18:58.765Z,41.64
2018-08-03T10:21:28.147Z,41.57
2018-08-03T10:23:57.565Z,40.69
2018-08-03T10:26:27.063Z,40.35
2018-08-03T10:28:56.493Z,40.76
2018-08-03T10:31:25.660Z,40.53
2018-08-03T10:33:55.520Z,40.40
2018-08-03T10:36:25.046Z,40.31
2018-08-03T10:38:54.422Z,40.31
2018-08-03T10:41:24.209Z,39.45
2018-08-03T10:43:53.579Z,39.64
2018-08-03T10:46:23.922Z,39.04
2018-08-03T10:48:53.835Z,39.82
2018-08-03T10:51:23.266Z,39.01
2018-08-03T10:53:52.641Z,39.47
2018-08-03T10:56:22.053Z,38.56
2018-08-03T10:58:51.581Z,39.73
2018-08-03T11:01:21.070Z,39.16
2018-08-03T11:03:50.499Z,38.76
2018-08-03T11:06:19.999Z,38.42
2018-08-03T11:08:49.386Z,39.45
2018-08-03T11:11:18.993Z,39.32
2018-08-03T11:13:48.562Z,39.40
2018-08-03T11:16:17.929Z,37.72
2018-08-03T11:18:48.321Z,39.25
2018-08-03T11:21:18.282Z,38.77
2018-08-03T11:23:47.802Z,38.93
2018-08-03T11:26:17.189Z,37.87
2018-08-03T11:28:46.369Z,37.74
2018-08-03T11:31:15.770Z,36.86
2018-08-03T11:33:45.159Z,37.70
2018-08-03T11:36:14.580Z,36.84
2018-08-03T11:38:44.191Z,36.36
2018-08-03T11:41:13.590Z,36.12
2018-08-03T11:43:43.014Z,36.64
2018-08-03T11:46:12.509Z,36.75
2018-08-03T11:48:41.902Z,37.29
2018-08-03T11:51:11.529Z,37.05
2018-08-03T11:53:40.703Z,35.68
2018-08-03T11:56:10.069Z,34.97
2018-08-03T11:58:39.477Z,34.32
2018-08-03T12:01:08.906Z,35.16
2018-08-03T12:03:38.321Z,33.61
2018-08-03T12:06:07.726Z,33.53
2018-08-03T12:08:37.121Z,34.31
2018-08-03T12:11:06.533Z,33.71
2018-08-03T12:13:35.953Z,32.95
2018-08-03T12:16:05.358Z,33.79
2018-08-03T12:18:34.725Z,33.79
2018-08-03T12:21:04.102Z,34.16
2018-08-03T12:23:33.544Z,35.09
2018-08-03T12:26:02.901Z,33.83
2018-08-03T12:28:32.253Z,34.52
2018-08-03T12:31:01.672Z,34.44
2018-08-03T12:33:31.026Z,33.67
2018-08-03T12:36:00.539Z,30.53
2018-08-03T12:38:29.897Z,29.14
2018-08-03T12:40:59.317Z,26.98
2018-08-03T12:43:28.794Z,27.07
2018-08-03T12:45:58.433Z,26.55
2018-08-03T12:48:27.881Z,23.87
2018-08-03T12:50:57.254Z,23.15
2018-08-03T12:53:26.622Z,23.92
2018-08-03T12:55:56.437Z,23.21
2018-08-03T12:58:25.806Z,23.83
2018-08-03T13:00:55.265Z,23.81
2018-08-03T13:03:24.645Z,25.09
2018-08-03T13:05:54.024Z,25.01
2018-08-03T13:08:23.586Z,24.19
2018-08-03T13:10:53.105Z,23.95
2018-08-03T13:13:23.495Z,21.75
2018-08-03T13:15:52.873Z,20.22
2018-08-03T13:18:22.351Z,19.38
2018-08-03T13:20:52.276Z,19.94
2018-08-03T13:23:22.573Z,21.86
2018-08-03T13:25:52.038Z,21.88
2018-08-03T13:28:21.435Z,20.87
2018-08-03T13:30:50.934Z,22.75
2018-08-03T13:33:20.456Z,22.47
2018-08-03T13:35:49.753Z,22.11
2018-08-03T13:38:19.542Z,21.25
2018-08-03T13:40:49.694Z,20.44
2018-08-03T13:43:19.037Z,20.78
2018-08-03T13:45:50.342Z,19.07
2018-08-03T13:48:19.702Z,20.17
2018-08-03T13:50:49.134Z,20.77
2018-08-03T13:53:18.585Z,24.77
2018-08-03T13:55:48.009Z,28.09
2018-08-03T13:58:17.391Z,26.70
2018-08-03T14:00:47.919Z,26.21
2018-08-03T14:03:17.416Z,25.28
2018-08-03T14:05:46.765Z,26.36
2018-08-03T14:08:16.157Z,25.42
2018-08-03T14:10:45.578Z,25.18
2018-08-03T14:13:15.815Z,25.02
2018-08-03T14:15:45.186Z,24.00
2018-08-03T14:18:14.638Z,25.88
2018-08-03T14:20:44.252Z,24.33
2018-08-03T14:23:13.628Z,24.20
2018-08-03T14:25:43.300Z,24.72
2018-08-03T14:28:13.029Z,26.48
2018-08-03T14:30:43.813Z,28.01
2018-08-03T14:33:13.574Z,27.75
2018-08-03T14:35:43.022Z,26.72
2018-08-03T14:38:12.470Z,26.11
2018-08-03T14:40:42.442Z,27.79
2018-08-03T14:43:11.838Z,30.44
2018-08-03T14:45:41.221Z,32.05
2018-08-03T14:48:10.676Z,30.26
2018-08-03T14:50:40.460Z,27.65
2018-08-03T14:53:09.986Z,28.06
2018-08-03T14:55:39.602Z,28.02
2018-08-03T14:58:08.960Z,28.80
2018-08-03T15:00:38.413Z,27.68
2018-08-03T15:03:07.787Z,27.22
2018-08-03T15:05:37.238Z,28.00
2018-08-03T15:08:07.330Z,25.76
2018-08-03T15:10:36.757Z,26.88
2018-08-03T15:13:06.177Z,26.90
2018-08-03T15:15:35.669Z,27.90
2018-08-03T15:18:05.168Z,27.34
2018-08-03T15:20:34.630Z,28.30
2018-08-03T15:23:03.995Z,28.57
2018-08-03T15:25:33.358Z,29.15
2018-08-03T15:28:04.073Z,29.65
2018-08-03T15:30:33.593Z,30.51
2018-08-03T15:33:03.500Z,29.44
2018-08-03T15:35:32.921Z,29.04
2018-08-03T15:38:02.329Z,29.99
2018-08-03T15:40:31.661Z,29.99
2018-08-03T15:43:01.157Z,28.03
2018-08-03T15:45:30.642Z,27.83
2018-08-03T15:48:00.031Z,29.26
2018-08-03T15:50:29.389Z,28.28
2018-08-03T15:52:59.081Z,29.14
2018-08-03T15:55:29.231Z,28.70
2018-08-03T15:57:58.746Z,27.36
2018-08-03T16:00:28.149Z,26.03
2018-08-03T16:02:57.762Z,27.87
2018-08-03T16:05:27.207Z,27.76
2018-08-03T16:07:56.571Z,27.50
2018-08-03T16:10:25.949Z,27.82
2018-08-03T16:12:55.369Z,28.73
2018-08-03T16:15:24.702Z,30.29
2018-08-03T16:17:54.102Z,30.45
2018-08-03T16:20:23.462Z,29.74
2018-08-03T16:22:53.066Z,29.68
2018-08-03T16:25:22.479Z,29.65
2018-08-03T16:27:52.118Z,28.85
2018-08-03T16:30:21.737Z,30.00
2018-08-03T16:32:51.130Z,30.20
2018-08-03T16:35:20.577Z,28.49
2018-08-03T16:37:50.174Z,28.59
2018-08-03T16:40:19.730Z,29.70
2018-08-03T16:42:49.219Z,29.54
2018-08-03T16:45:18.729Z,29.56
2018-08-03T16:47:48.192Z,27.98
2018-08-03T16:50:17.557Z,29.05
2018-08-03T16:52:47.013Z,28.39
2018-08-03T16:55:16.402Z,28.08
2018-08-03T16:57:45.812Z,28.15
2018-08-03T17:00:17.902Z,27.59
2018-08-03T17:02:47.909Z,26.78
2018-08-03T17:05:17.272Z,28.41
2018-08-03T17:07:46.703Z,29.59
2018-08-03T17:10:16.090Z,29.50
2018-08-03T17:12:45.517Z,29.83
2018-08-03T17:15:14.887Z,29.44
2018-08-03T17:17:44.285Z,29.65
2018-08-03T17:20:13.732Z,29.90
2018-08-03T17:22:43.116Z,30.35
2018-08-03T17:25:13.117Z,31.86
2018-08-03T17:27:42.699Z,31.37
2018-08-03T17:30:12.170Z,31.87
2018-08-03T17:32:41.591Z,31.88
2018-08-03T17:35:10.893Z,31.99
2018-08-03T17:37:41.277Z,31.81
2018-08-03T17:40:10.657Z,32.14
2018-08-03T17:42:40.135Z,32.18
2018-08-03T17:45:09.945Z,32.21
2018-08-03T17:47:39.304Z,32.94
2018-08-03T17:50:08.741Z,33.30
2018-08-03T17:52:37.869Z,33.26
2018-08-03T17:55:07.334Z,33.96
2018-08-03T17:57:36.691Z,34.14
2018-08-03T18:00:06.650Z,33.26
2018-08-03T18:02:36.037Z,33.13
2018-08-03T18:05:05.583Z,33.85
2018-08-03T18:07:35.055Z,33.09
2018-08-03T18:10:04.479Z,33.54
2018-08-03T18:12:33.862Z,33.39
2018-08-03T18:15:03.426Z,33.36
2018-08-03T18:17:32.885Z,33.79
2018-08-03T18:20:02.898Z,34.62
2018-08-03T18:22:32.305Z,34.44
2018-08-03T18:25:01.827Z,34.67
2018-08-03T18:27:31.209Z,33.57
2018-08-03T18:30:00.622Z,33.78
2018-08-03T18:32:30.131Z,33.66
2018-08-03T18:34:59.554Z,34.22
2018-08-03T18:37:29.006Z,34.29
2018-08-03T18:39:58.450Z,34.86
2018-08-03T18:42:27.784Z,34.76
2018-08-03T18:44:57.276Z,34.21
2018-08-03T18:47:26.831Z,35.31
2018-08-03T18:49:56.242Z,34.95
2018-08-03T18:52:25.681Z,35.57
2018-08-03T18:54:55.320Z,35.71
2018-08-03T18:57:25.248Z,35.15
2018-08-03T18:59:54.626Z,35.21
2018-08-03T19:02:24.209Z,35.36
2018-08-03T19:04:53.605Z,35.95
2018-08-03T19:07:23.113Z,36.43
2018-08-03T19:09:52.496Z,36.42
2018-08-03T19:12:21.949Z,36.43
2018-08-03T19:14:51.535Z,36.99
2018-08-03T19:17:21.049Z,37.28
2018-08-03T19:19:50.418Z,37.63
2018-08-03T19:22:19.789Z,37.48
2018-08-03T19:24:49.225Z,36.98
2018-08-03T19:27:18.660Z,37.18
2018-08-03T19:29:48.185Z,38.73
2018-08-03T19:32:17.658Z,38.31
2018-08-03T19:34:47.048Z,37.96
2018-08-03T19:37:16.512Z,39.51
2018-08-03T19:39:45.960Z,38.28
2018-08-03T19:42:15.398Z,38.49
2018-08-03T19:44:44.820Z,38.34
2018-08-03T19:47:14.355Z,38.33
2018-08-03T19:49:43.690Z,39.44
2018-08-03T19:52:13.081Z,39.16
2018-08-03T19:54:42.481Z,39.66
2018-08-03T19:57:11.933Z,40.12
2018-08-03T19:59:41.199Z,40.60
2018-08-03T20:02:10.850Z,41.44
2018-08-03T20:04:40.201Z,42.31
2018-08-03T20:07:10.350Z,43.38
2018-08-03T20:09:39.770Z,44.11
2018-08-03T20:12:09.218Z,44.48
2018-08-03T20:14:38.645Z,44.91
2018-08-03T20:17:08.275Z,44.48
2018-08-03T20:19:37.950Z,45.70
2018-08-03T20:22:12.420Z,45.23
2018-08-03T20:24:42.069Z,44.32
2018-08-03T20:27:11.529Z,44.92
2018-08-03T20:29:41.329Z,44.86
2018-08-03T20:32:10.719Z,44.71
2018-08-03T20:34:40.145Z,44.75
2018-08-03T20:37:09.529Z,44.79
2018-08-03T20:39:39.013Z,45.39
2018-08-03T20:42:08.391Z,46.88
2018-08-03T20:44:37.846Z,47.38
2018-08-03T20:47:07.295Z,47.55
2018-08-03T20:49:36.851Z,49.04
2018-08-03T20:52:06.290Z,48.85
2018-08-03T20:54:35.376Z,50.29
2018-08-03T20:57:04.858Z,50.32
2018-08-03T20:59:34.497Z,51.30
2018-08-03T21:02:03.903Z,51.90
2018-08-03T21:04:33.266Z,52.16
2018-08-03T21:07:02.722Z,52.06
2018-08-03T21:09:31.905Z,52.95
2018-08-03T21:12:01.321Z,51.84
2018-08-03T21:14:30.925Z,52.98
2018-08-03T21:17:00.293Z,53.94
2018-08-03T21:19:29.766Z,54.03
2018-08-03T21:21:59.445Z,54.73
2018-08-03T21:24:28.922Z,54.60
2018-08-03T21:26:58.301Z,54.46
2018-08-03T21:29:27.758Z,54.38
2018-08-03T21:31:57.085Z,55.67
2018-08-03T21:34:26.543Z,55.61
2018-08-03T21:36:55.942Z,55.94
2018-08-03T21:39:25.317Z,56.34
2018-08-03T21:41:54.485Z,56.59
2018-08-03T21:44:23.933Z,57.28
2018-08-03T21:46:53.369Z,57.59
2018-08-03T21:49:22.767Z,57.85
2018-08-03T21:51:52.171Z,58.21
2018-08-03T21:54:21.564Z,58.13
2018-08-03T21:56:52.304Z,58.11
2018-08-03T21:59:21.723Z,58.95
2018-08-03T22:04:19.737Z,59.20
2018-08-03T22:06:49.160Z,59.82
2018-08-03T22:09:18.594Z,59.87
2018-08-03T22:11:47.966Z,59.54
2018-08-03T22:14:17.314Z,60.05
2018-08-03T22:16:46.733Z,60.97
2018-08-03T22:19:16.250Z,60.96
2018-08-03T22:21:45.707Z,60.73
2018-08-03T22:24:15.152Z,61.91
2018-08-03T22:26:44.545Z,61.45
2018-08-03T22:29:13.959Z,62.88
2018-08-03T22:31:44.377Z,62.12
2018-08-03T22:34:13.714Z,62.24
2018-08-03T22:36:43.218Z,63.37
2018-08-03T22:39:12.673Z,62.28
2018-08-03T22:41:42.122Z,62.77
2018-08-03T22:44:11.594Z,63.24
2018-08-03T22:46:41.123Z,63.54
2018-08-03T22:49:10.481Z,63.27
2018-08-03T22:51:39.905Z,64.20
2018-08-03T22:54:09.327Z,64.17
2018-08-03T22:56:39.877Z,64.70
2018-08-03T22:59:09.059Z,64.65
2018-08-03T23:01:38.482Z,64.94
2018-08-03T23:04:07.709Z,65.39
2018-08-03T23:06:38.567Z,65.24
2018-08-03T23:09:09.161Z,65.56
2018-08-03T23:11:38.771Z,65.36
2018-08-03T23:14:08.161Z,65.47
2018-08-03T23:16:37.437Z,65.27
2018-08-03T23:19:06.943Z,65.82
2018-08-03T23:21:36.382Z,65.75
2018-08-03T23:24:05.729Z,65.48
2018-08-03T23:26:35.081Z,65.30
2018-08-03T23:29:04.465Z,66.22
2018-08-03T23:31:33.947Z,66.39
2018-08-03T23:34:03.365Z,66.54
2018-08-03T23:36:32.869Z,66.62
2018-08-03T23:39:02.223Z,66.41
2018-08-03T23:41:31.653Z,66.68
2018-08-03T23:44:01.085Z,66.50
2018-08-03T23:46:30.457Z,66.36
2018-08-03T23:48:59.840Z,66.76
2018-08-03T23:51:30.122Z,67.34
2018-08-03T23:53:59.508Z,67.15
2018-08-03T23:56:29.037Z,67.83
2018-08-03T23:58:58.416Z,68.18
